Lublin, Poland
Current Conditions -  °F | °C
As of 1:00 AM on Tuesday 25 Nov 2014 (Local Time) from EPLB Reporting Station
Clear Clear  
Wind Chill: 23°   Ceiling: Unl
Heat Index: 30°   Visibility: 4mi
Dew Point: 28°   Wind: 7mph
Humidity: 93%   Direction: 140°SE
Pressure: 30.33"   Gusts: NA
Location:  51.24°N, 22.57°E
Report Text: EPLB 242300Z 14006KT 6000 NSC M01/M02 Q1027
Loading
Personal Weather Stations






























Interactive Weather Map New forecast layout! Learn more

10-Day Weather Forecast

Advertisements
Track Severe Weather on mobile